sensor_id;sensor_type;location;lat;lon;timestamp;temperature;humidity
5218;DHT22;26539;51.064;6.346;2023-03-15T00:09:33;4.40;99.90
5218;DHT22;26539;51.064;6.346;2023-03-15T00:16:02;4.50;99.90
5218;DHT22;26539;51.064;6.346;2023-03-15T00:25:52;4.60;1.00
5218;DHT22;26539;51.064;6.346;2023-03-15T00:29:09;4.60;99.90
5218;DHT22;26539;51.064;6.346;2023-03-15T00:46:00;4.60;1.00
5218;DHT22;26539;51.064;6.346;2023-03-15T00:55:39;4.60;26.20
5218;DHT22;26539;51.064;6.346;2023-03-15T01:01:45;4.70;99.90
5218;DHT22;26539;51.064;6.346;2023-03-15T01:04:41;4.70;99.90
5218;DHT22;26539;51.064;6.346;2023-03-15T01:13:37;4.50;1.00
5218;DHT22;26539;51.064;6.346;2023-03-15T01:16:27;4.50;1.00
5218;DHT22;26539;51.064;6.346;2023-03-15T01:19:18;4.40;1.00
5218;DHT22;26539;51.064;6.346;2023-03-15T01:22:10;4.30;1.00
5218;DHT22;26539;51.064;6.346;2023-03-15T01:28:54;4.30;99.90
5218;DHT22;26539;51.064;6.346;2023-03-15T01:31:57;4.20;99.90
5218;DHT22;26539;51.064;6.346;2023-03-15T01:38:22;4.10;99.90
5218;DHT22;26539;51.064;6.346;2023-03-15T01:41:19;4.00;99.90
5218;DHT22;26539;51.064;6.346;2023-03-15T01:47:33;3.90;99.90
5218;DHT22;26539;51.064;6.346;2023-03-15T01:50:07;3.90;99.90
5218;DHT22;26539;51.064;6.346;2023-03-15T01:53:56;3.90;99.90
5218;DHT22;26539;51.064;6.346;2023-03-15T02:00:32;3.80;99.90
5218;DHT22;26539;51.064;6.346;2023-03-15T02:03:18;3.80;99.90
5218;DHT22;26539;51.064;6.346;2023-03-15T02:12:54;3.60;99.90
5218;DHT22;26539;51.064;6.346;2023-03-15T02:15:40;3.50;99.90
5218;DHT22;26539;51.064;6.346;2023-03-15T02:18:32;3.50;99.90
5218;DHT22;26539;51.064;6.346;2023-03-15T02:33:42;3.40;99.90
5218;DHT22;26539;51.064;6.346;2023-03-15T02:36:25;3.40;99.90
5218;DHT22;26539;51.064;6.346;2023-03-15T02:39:01;3.40;99.90
5218;DHT22;26539;51.064;6.346;2023-03-15T02:42:30;3.30;99.90
5218;DHT22;26539;51.064;6.346;2023-03-15T02:55:18;3.20;99.90
5218;DHT22;26539;51.064;6.346;2023-03-15T02:58:35;3.20;99.90
5218;DHT22;26539;51.064;6.346;2023-03-15T03:01:38;3.20;99.90
5218;DHT22;26539;51.064;6.346;2023-03-15T03:04:54;3.20;99.90
5218;DHT22;26539;51.064;6.346;2023-03-15T03:08:09;3.20;99.90
5218;DHT22;26539;51.064;6.346;2023-03-15T03:14:02;3.30;99.90
5218;DHT22;26539;51.064;6.346;2023-03-15T03:32:34;3.50;99.90
5218;DHT22;26539;51.064;6.346;2023-03-15T03:35:25;3.60;99.90
5218;DHT22;26539;51.064;6.346;2023-03-15T03:41:37;3.60;99.90
5218;DHT22;26539;51.064;6.346;2023-03-15T03:44:11;3.70;99.90
5218;DHT22;26539;51.064;6.346;2023-03-15T03:46:49;3.70;99.90
5218;DHT22;26539;51.064;6.346;2023-03-15T03:49:52;3.70;99.90
5218;DHT22;26539;51.064;6.346;2023-03-15T03:58:05;3.60;99.90
5218;DHT22;26539;51.064;6.346;2023-03-15T04:00:40;3.50;99.90
5218;DHT22;26539;51.064;6.346;2023-03-15T04:03:27;3.40;99.90
5218;DHT22;26539;51.064;6.346;2023-03-15T04:06:02;3.40;99.90
5218;DHT22;26539;51.064;6.346;2023-03-15T04:08:35;3.30;99.90
5218;DHT22;26539;51.064;6.346;2023-03-15T04:11:06;3.30;99.90
5218;DHT22;26539;51.064;6.346;2023-03-15T04:13:42;3.20;99.90
5218;DHT22;26539;51.064;6.346;2023-03-15T04:16:31;3.20;99.90
5218;DHT22;26539;51.064;6.346;2023-03-15T04:18:59;3.10;99.90
5218;DHT22;26539;51.064;6.346;2023-03-15T04:21:29;3.10;99.90
5218;DHT22;26539;51.064;6.346;2023-03-15T04:24:14;3.10;1.00
5218;DHT22;26539;51.064;6.346;2023-03-15T04:26:39;3.10;1.00
5218;DHT22;26539;51.064;6.346;2023-03-15T04:29:09;3.10;1.00
5218;DHT22;26539;51.064;6.346;2023-03-15T04:31:38;3.10;1.00
5218;DHT22;26539;51.064;6.346;2023-03-15T04:36:45;3.10;1.00
5218;DHT22;26539;51.064;6.346;2023-03-15T04:39:15;3.10;1.00
5218;DHT22;26539;51.064;6.346;2023-03-15T04:41:41;3.00;1.00
5218;DHT22;26539;51.064;6.346;2023-03-15T04:44:07;3.00;1.00
5218;DHT22;26539;51.064;6.346;2023-03-15T04:46:34;2.90;1.00
5218;DHT22;26539;51.064;6.346;2023-03-15T04:49:03;2.80;1.00
5218;DHT22;26539;51.064;6.346;2023-03-15T04:51:29;2.80;1.00
5218;DHT22;26539;51.064;6.346;2023-03-15T04:53:54;2.80;1.00
5218;DHT22;26539;51.064;6.346;2023-03-15T04:56:20;2.70;1.00
5218;DHT22;26539;51.064;6.346;2023-03-15T04:58:50;2.70;1.00
5218;DHT22;26539;51.064;6.346;2023-03-15T05:01:16;2.70;1.00
5218;DHT22;26539;51.064;6.346;2023-03-15T05:03:44;2.60;1.00
5218;DHT22;26539;51.064;6.346;2023-03-15T05:08:58;2.60;1.00
5218;DHT22;26539;51.064;6.346;2023-03-15T05:11:31;2.60;1.00
5218;DHT22;26539;51.064;6.346;2023-03-15T05:13:59;2.60;1.00
5218;DHT22;26539;51.064;6.346;2023-03-15T05:16:45;2.60;1.00
5218;DHT22;26539;51.064;6.346;2023-03-15T05:19:16;2.50;1.00
5218;DHT22;26539;51.064;6.346;2023-03-15T05:21:48;2.50;1.00
5218;DHT22;26539;51.064;6.346;2023-03-15T05:24:46;2.50;1.00
5218;DHT22;26539;51.064;6.346;2023-03-15T05:27:37;2.50;1.00
5218;DHT22;26539;51.064;6.346;2023-03-15T05:30:12;2.60;1.00
5218;DHT22;26539;51.064;6.346;2023-03-15T05:33:08;2.50;1.00
5218;DHT22;26539;51.064;6.346;2023-03-15T05:35:55;2.50;1.00
5218;DHT22;26539;51.064;6.346;2023-03-15T05:41:25;2.50;1.00
5218;DHT22;26539;51.064;6.346;2023-03-15T05:44:02;2.50;1.00
5218;DHT22;26539;51.064;6.346;2023-03-15T05:46:33;2.50;1.00
5218;DHT22;26539;51.064;6.346;2023-03-15T05:49:01;2.50;1.00
5218;DHT22;26539;51.064;6.346;2023-03-15T05:51:46;2.60;1.00
5218;DHT22;26539;51.064;6.346;2023-03-15T05:54:14;2.70;1.00
5218;DHT22;26539;51.064;6.346;2023-03-15T05:56:53;2.80;1.00
5218;DHT22;26539;51.064;6.346;2023-03-15T05:59:23;2.90;1.00
5218;DHT22;26539;51.064;6.346;2023-03-15T06:01:54;3.00;1.00
5218;DHT22;26539;51.064;6.346;2023-03-15T06:04:22;3.00;1.00
5218;DHT22;26539;51.064;6.346;2023-03-15T06:06:58;3.10;1.00
5218;DHT22;26539;51.064;6.346;2023-03-15T06:09:26;3.20;1.00
5218;DHT22;26539;51.064;6.346;2023-03-15T06:11:54;3.20;1.00
5218;DHT22;26539;51.064;6.346;2023-03-15T06:14:23;3.30;1.00
5218;DHT22;26539;51.064;6.346;2023-03-15T06:16:49;3.40;1.00
5218;DHT22;26539;51.064;6.346;2023-03-15T06:19:19;3.40;1.00
5218;DHT22;26539;51.064;6.346;2023-03-15T06:21:46;3.50;1.00
5218;DHT22;26539;51.064;6.346;2023-03-15T06:24:14;3.50;1.00
5218;DHT22;26539;51.064;6.346;2023-03-15T06:26:40;3.60;1.00
5218;DHT22;26539;51.064;6.346;2023-03-15T06:29:08;3.60;1.00
5218;DHT22;26539;51.064;6.346;2023-03-15T06:31:33;3.70;1.00
5218;DHT22;26539;51.064;6.346;2023-03-15T06:34:01;3.70;1.00
5218;DHT22;26539;51.064;6.346;2023-03-15T06:36:30;3.80;1.00
5218;DHT22;26539;51.064;6.346;2023-03-15T06:39:21;3.90;1.00
5218;DHT22;26539;51.064;6.346;2023-03-15T06:41:52;3.90;1.00
5218;DHT22;26539;51.064;6.346;2023-03-15T06:44:26;3.90;1.00
5218;DHT22;26539;51.064;6.346;2023-03-15T06:46:57;3.90;1.00
5218;DHT22;26539;51.064;6.346;2023-03-15T06:49:27;3.90;1.00
5218;DHT22;26539;51.064;6.346;2023-03-15T06:51:59;3.90;1.00
5218;DHT22;26539;51.064;6.346;2023-03-15T06:54:25;3.80;1.00
5218;DHT22;26539;51.064;6.346;2023-03-15T06:56:52;3.80;1.00
5218;DHT22;26539;51.064;6.346;2023-03-15T06:59:18;3.90;1.00
5218;DHT22;26539;51.064;6.346;2023-03-15T07:01:43;4.10;1.00
5218;DHT22;26539;51.064;6.346;2023-03-15T07:04:09;4.30;1.00
5218;DHT22;26539;51.064;6.346;2023-03-15T07:06:34;4.90;1.00
5218;DHT22;26539;51.064;6.346;2023-03-15T07:09:01;5.20;99.90
5218;DHT22;26539;51.064;6.346;2023-03-15T07:11:26;5.60;99.90
5218;DHT22;26539;51.064;6.346;2023-03-15T07:13:52;5.70;1.00
5218;DHT22;26539;51.064;6.346;2023-03-15T07:16:17;5.70;1.00
5218;DHT22;26539;51.064;6.346;2023-03-15T07:18:43;5.90;99.90
5218;DHT22;26539;51.064;6.346;2023-03-15T07:21:08;5.90;1.00
5218;DHT22;26539;51.064;6.346;2023-03-15T07:23:34;5.90;1.00
5218;DHT22;26539;51.064;6.346;2023-03-15T07:26:00;5.80;1.00
5218;DHT22;26539;51.064;6.346;2023-03-15T07:28:26;5.70;1.00
5218;DHT22;26539;51.064;6.346;2023-03-15T07:30:57;5.70;1.00
5218;DHT22;26539;51.064;6.346;2023-03-15T07:33:24;5.60;99.90
5218;DHT22;26539;51.064;6.346;2023-03-15T07:35:51;5.60;1.00
5218;DHT22;26539;51.064;6.346;2023-03-15T07:38:23;5.50;1.00
5218;DHT22;26539;51.064;6.346;2023-03-15T07:40:49;5.50;1.00
5218;DHT22;26539;51.064;6.346;2023-03-15T07:43:17;5.40;1.00
5218;DHT22;26539;51.064;6.346;2023-03-15T07:45:43;5.50;1.00
5218;DHT22;26539;51.064;6.346;2023-03-15T07:48:09;5.70;1.00
5218;DHT22;26539;51.064;6.346;2023-03-15T07:50:35;6.10;1.00
5218;DHT22;26539;51.064;6.346;2023-03-15T07:53:02;6.80;99.90
5218;DHT22;26539;51.064;6.346;2023-03-15T07:55:28;7.00;1.00
5218;DHT22;26539;51.064;6.346;2023-03-15T07:57:54;7.50;99.90
5218;DHT22;26539;51.064;6.346;2023-03-15T08:00:20;8.60;1.00
5218;DHT22;26539;51.064;6.346;2023-03-15T08:02:46;9.00;1.00
5218;DHT22;26539;51.064;6.346;2023-03-15T08:05:11;8.70;1.00
5218;DHT22;26539;51.064;6.346;2023-03-15T08:07:37;8.40;99.90
5218;DHT22;26539;51.064;6.346;2023-03-15T08:10:06;8.10;99.90
5218;DHT22;26539;51.064;6.346;2023-03-15T08:12:31;7.80;1.00
5218;DHT22;26539;51.064;6.346;2023-03-15T08:14:57;7.50;1.00
5218;DHT22;26539;51.064;6.346;2023-03-15T08:17:23;7.30;1.00
5218;DHT22;26539;51.064;6.346;2023-03-15T08:19:48;7.20;1.00
5218;DHT22;26539;51.064;6.346;2023-03-15T08:22:14;7.20;95.60
5218;DHT22;26539;51.064;6.346;2023-03-15T08:24:40;7.10;99.90
5218;DHT22;26539;51.064;6.346;2023-03-15T08:27:06;7.00;99.90
5218;DHT22;26539;51.064;6.346;2023-03-15T08:29:32;6.90;99.90
5218;DHT22;26539;51.064;6.346;2023-03-15T08:31:57;6.80;99.90
5218;DHT22;26539;51.064;6.346;2023-03-15T08:34:25;6.90;1.00
5218;DHT22;26539;51.064;6.346;2023-03-15T08:36:51;6.90;1.00
5218;DHT22;26539;51.064;6.346;2023-03-15T08:39:16;7.10;1.00
5218;DHT22;26539;51.064;6.346;2023-03-15T08:41:42;7.10;1.00
5218;DHT22;26539;51.064;6.346;2023-03-15T08:44:08;7.20;99.90
5218;DHT22;26539;51.064;6.346;2023-03-15T08:46:36;7.60;99.90
5218;DHT22;26539;51.064;6.346;2023-03-15T08:49:02;8.00;17.00
5218;DHT22;26539;51.064;6.346;2023-03-15T08:51:27;8.30;1.00
5218;DHT22;26539;51.064;6.346;2023-03-15T08:53:55;8.60;99.90
5218;DHT22;26539;51.064;6.346;2023-03-15T08:56:20;8.80;99.90
5218;DHT22;26539;51.064;6.346;2023-03-15T08:58:46;8.70;99.90
5218;DHT22;26539;51.064;6.346;2023-03-15T09:01:13;8.70;99.90
5218;DHT22;26539;51.064;6.346;2023-03-15T09:03:42;8.80;99.90
5218;DHT22;26539;51.064;6.346;2023-03-15T09:06:08;9.50;42.60
5218;DHT22;26539;51.064;6.346;2023-03-15T09:08:34;12.40;1.00
5218;DHT22;26539;51.064;6.346;2023-03-15T09:11:00;13.50;1.00
5218;DHT22;26539;51.064;6.346;2023-03-15T09:13:28;14.30;99.90
5218;DHT22;26539;51.064;6.346;2023-03-15T09:15:55;14.80;99.90
5218;DHT22;26539;51.064;6.346;2023-03-15T09:18:22;16.00;99.90
5218;DHT22;26539;51.064;6.346;2023-03-15T09:20:48;18.10;99.90
5218;DHT22;26539;51.064;6.346;2023-03-15T09:23:14;18.50;99.90
5218;DHT22;26539;51.064;6.346;2023-03-15T09:25:39;19.10;99.90
5218;DHT22;26539;51.064;6.346;2023-03-15T09:28:07;19.00;99.90
5218;DHT22;26539;51.064;6.346;2023-03-15T09:30:35;18.50;99.90
5218;DHT22;26539;51.064;6.346;2023-03-15T09:33:01;19.40;99.90
5218;DHT22;26539;51.064;6.346;2023-03-15T09:35:26;22.10;99.90
5218;DHT22;26539;51.064;6.346;2023-03-15T09:37:52;24.10;99.90
5218;DHT22;26539;51.064;6.346;2023-03-15T09:40:27;23.60;99.90
5218;DHT22;26539;51.064;6.346;2023-03-15T09:46:01;21.60;99.90
5218;DHT22;26539;51.064;6.346;2023-03-15T09:48:45;21.30;99.90
5218;DHT22;26539;51.064;6.346;2023-03-15T09:51:32;22.80;99.90
5218;DHT22;26539;51.064;6.346;2023-03-15T09:59:12;27.50;99.90
5218;DHT22;26539;51.064;6.346;2023-03-15T10:01:44;28.50;99.90
5218;DHT22;26539;51.064;6.346;2023-03-15T10:04:31;29.30;99.90
5218;DHT22;26539;51.064;6.346;2023-03-15T10:07:06;29.60;99.90
5218;DHT22;26539;51.064;6.346;2023-03-15T10:09:36;29.20;99.90
5218;DHT22;26539;51.064;6.346;2023-03-15T10:12:09;26.90;99.90
5218;DHT22;26539;51.064;6.346;2023-03-15T10:20:38;22.60;99.90
5218;DHT22;26539;51.064;6.346;2023-03-15T10:23:13;23.80;99.90
5218;DHT22;26539;51.064;6.346;2023-03-15T10:25:43;25.00;99.90
5218;DHT22;26539;51.064;6.346;2023-03-15T10:28:13;26.10;99.90
5218;DHT22;26539;51.064;6.346;2023-03-15T10:30:46;26.90;99.90
5218;DHT22;26539;51.064;6.346;2023-03-15T10:33:31;27.80;99.90
5218;DHT22;26539;51.064;6.346;2023-03-15T10:35:59;28.60;99.90
5218;DHT22;26539;51.064;6.346;2023-03-15T10:38:27;29.00;99.90
5218;DHT22;26539;51.064;6.346;2023-03-15T10:40:57;29.60;99.90
5218;DHT22;26539;51.064;6.346;2023-03-15T10:43:31;29.80;99.90
5218;DHT22;26539;51.064;6.346;2023-03-15T10:48:39;30.20;99.90
5218;DHT22;26539;51.064;6.346;2023-03-15T10:51:29;30.00;99.90
5218;DHT22;26539;51.064;6.346;2023-03-15T10:54:06;30.20;99.90
5218;DHT22;26539;51.064;6.346;2023-03-15T10:59:22;30.00;99.90
5218;DHT22;26539;51.064;6.346;2023-03-15T11:01:52;30.10;99.90
5218;DHT22;26539;51.064;6.346;2023-03-15T11:04:21;29.90;99.90
5218;DHT22;26539;51.064;6.346;2023-03-15T11:09:23;28.30;99.90
5218;DHT22;26539;51.064;6.346;2023-03-15T11:12:02;29.00;99.90
5218;DHT22;26539;51.064;6.346;2023-03-15T11:14:33;29.20;99.90
5218;DHT22;26539;51.064;6.346;2023-03-15T11:17:00;27.70;99.90
5218;DHT22;26539;51.064;6.346;2023-03-15T11:19:28;26.80;99.90
5218;DHT22;26539;51.064;6.346;2023-03-15T11:21:57;26.80;99.90
5218;DHT22;26539;51.064;6.346;2023-03-15T11:24:27;27.00;99.90
5218;DHT22;26539;51.064;6.346;2023-03-15T11:26:56;27.50;99.90
5218;DHT22;26539;51.064;6.346;2023-03-15T11:29:31;28.10;99.90
5218;DHT22;26539;51.064;6.346;2023-03-15T11:31:59;28.40;99.90
5218;DHT22;26539;51.064;6.346;2023-03-15T11:37:20;27.80;99.90
5218;DHT22;26539;51.064;6.346;2023-03-15T11:40:00;28.40;99.90
5218;DHT22;26539;51.064;6.346;2023-03-15T11:42:36;28.90;99.90
5218;DHT22;26539;51.064;6.346;2023-03-15T11:45:16;27.80;99.90
5218;DHT22;26539;51.064;6.346;2023-03-15T11:47:49;28.40;99.90
5218;DHT22;26539;51.064;6.346;2023-03-15T11:50:15;29.10;99.90
5218;DHT22;26539;51.064;6.346;2023-03-15T11:52:42;29.70;99.90
5218;DHT22;26539;51.064;6.346;2023-03-15T11:55:26;28.90;99.90
5218;DHT22;26539;51.064;6.346;2023-03-15T11:57:52;28.10;99.90
5218;DHT22;26539;51.064;6.346;2023-03-15T12:00:48;28.30;99.90
5218;DHT22;26539;51.064;6.346;2023-03-15T12:03:35;28.10;99.90
5218;DHT22;26539;51.064;6.346;2023-03-15T12:16:29;27.90;99.90
5218;DHT22;26539;51.064;6.346;2023-03-15T12:19:00;28.40;99.90
5218;DHT22;26539;51.064;6.346;2023-03-15T12:21:32;28.80;99.90
5218;DHT22;26539;51.064;6.346;2023-03-15T12:24:01;28.80;99.90
5218;DHT22;26539;51.064;6.346;2023-03-15T12:26:43;28.90;99.90
5218;DHT22;26539;51.064;6.346;2023-03-15T12:29:24;28.70;99.90
5218;DHT22;26539;51.064;6.346;2023-03-15T12:31:57;28.90;99.90
5218;DHT22;26539;51.064;6.346;2023-03-15T12:34:29;28.40;99.90
5218;DHT22;26539;51.064;6.346;2023-03-15T12:37:08;28.60;99.90
5218;DHT22;26539;51.064;6.346;2023-03-15T12:39:46;28.90;99.90
5218;DHT22;26539;51.064;6.346;2023-03-15T12:55:57;24.50;97.10
5218;DHT22;26539;51.064;6.346;2023-03-15T12:58:30;24.20;99.90
5218;DHT22;26539;51.064;6.346;2023-03-15T13:01:01;24.50;99.90
5218;DHT22;26539;51.064;6.346;2023-03-15T13:03:28;24.80;99.90
5218;DHT22;26539;51.064;6.346;2023-03-15T13:12:11;25.70;99.90
5218;DHT22;26539;51.064;6.346;2023-03-15T13:17:30;25.90;99.90
5218;DHT22;26539;51.064;6.346;2023-03-15T13:22:56;25.30;99.90
5218;DHT22;26539;51.064;6.346;2023-03-15T13:25:50;25.30;99.90
5218;DHT22;26539;51.064;6.346;2023-03-15T13:28:24;25.20;99.90
5218;DHT22;26539;51.064;6.346;2023-03-15T13:30:53;24.90;99.90
5218;DHT22;26539;51.064;6.346;2023-03-15T13:33:29;24.40;99.90
5218;DHT22;26539;51.064;6.346;2023-03-15T13:36:02;23.90;99.90
5218;DHT22;26539;51.064;6.346;2023-03-15T13:38:33;23.70;99.90
5218;DHT22;26539;51.064;6.346;2023-03-15T13:41:01;23.60;99.90
5218;DHT22;26539;51.064;6.346;2023-03-15T13:43:38;23.50;99.90
5218;DHT22;26539;51.064;6.346;2023-03-15T13:46:04;23.20;99.90
5218;DHT22;26539;51.064;6.346;2023-03-15T13:48:32;22.40;98.50
5218;DHT22;26539;51.064;6.346;2023-03-15T13:51:16;21.90;97.50
5218;DHT22;26539;51.064;6.346;2023-03-15T13:53:42;21.70;97.60
5218;DHT22;26539;51.064;6.346;2023-03-15T13:56:15;21.70;97.70
5218;DHT22;26539;51.064;6.346;2023-03-15T13:58:41;21.70;98.50
5218;DHT22;26539;51.064;6.346;2023-03-15T14:01:09;21.60;98.10
5218;DHT22;26539;51.064;6.346;2023-03-15T14:03:37;21.40;97.50
5218;DHT22;26539;51.064;6.346;2023-03-15T14:06:05;21.00;96.40
5218;DHT22;26539;51.064;6.346;2023-03-15T14:08:34;20.80;96.40
5218;DHT22;26539;51.064;6.346;2023-03-15T14:13:47;19.90;93.90
5218;DHT22;26539;51.064;6.346;2023-03-15T14:16:16;19.90;94.70
5218;DHT22;26539;51.064;6.346;2023-03-15T14:18:53;20.10;95.20
5218;DHT22;26539;51.064;6.346;2023-03-15T14:21:29;20.10;95.50
5218;DHT22;26539;51.064;6.346;2023-03-15T14:23:55;20.20;95.60
5218;DHT22;26539;51.064;6.346;2023-03-15T14:26:28;19.90;95.30
5218;DHT22;26539;51.064;6.346;2023-03-15T14:28:57;19.80;95.50
5218;DHT22;26539;51.064;6.346;2023-03-15T14:31:26;19.70;95.10
5218;DHT22;26539;51.064;6.346;2023-03-15T14:34:03;19.40;93.90
5218;DHT22;26539;51.064;6.346;2023-03-15T14:36:48;19.00;93.10
5218;DHT22;26539;51.064;6.346;2023-03-15T14:39:30;18.50;91.70
5218;DHT22;26539;51.064;6.346;2023-03-15T14:41:56;18.30;91.50
5218;DHT22;26539;51.064;6.346;2023-03-15T14:44:22;18.10;90.80
5218;DHT22;26539;51.064;6.346;2023-03-15T14:46:48;17.80;90.50
5218;DHT22;26539;51.064;6.346;2023-03-15T14:49:21;17.60;90.50
5218;DHT22;26539;51.064;6.346;2023-03-15T14:51:51;17.50;89.60
5218;DHT22;26539;51.064;6.346;2023-03-15T14:54:18;17.40;90.60
5218;DHT22;26539;51.064;6.346;2023-03-15T14:56:43;17.40;90.50
5218;DHT22;26539;51.064;6.346;2023-03-15T14:59:10;17.50;91.10
5218;DHT22;26539;51.064;6.346;2023-03-15T15:01:37;17.70;91.70
5218;DHT22;26539;51.064;6.346;2023-03-15T15:04:05;17.80;93.60
5218;DHT22;26539;51.064;6.346;2023-03-15T15:06:30;17.70;92.40
5218;DHT22;26539;51.064;6.346;2023-03-15T15:08:58;17.60;92.20
5218;DHT22;26539;51.064;6.346;2023-03-15T15:11:24;17.50;91.40
5218;DHT22;26539;51.064;6.346;2023-03-15T15:13:50;17.60;92.20
5218;DHT22;26539;51.064;6.346;2023-03-15T15:16:16;17.80;99.90
5218;DHT22;26539;51.064;6.346;2023-03-15T15:18:41;17.70;93.90
5218;DHT22;26539;51.064;6.346;2023-03-15T15:21:13;17.70;93.50
5218;DHT22;26539;51.064;6.346;2023-03-15T15:23:42;17.70;92.90
5218;DHT22;26539;51.064;6.346;2023-03-15T15:26:15;17.60;93.50
5218;DHT22;26539;51.064;6.346;2023-03-15T15:28:42;17.60;92.70
5218;DHT22;26539;51.064;6.346;2023-03-15T15:31:13;17.40;92.00
5218;DHT22;26539;51.064;6.346;2023-03-15T15:33:40;17.20;92.50
5218;DHT22;26539;51.064;6.346;2023-03-15T15:36:11;17.00;90.80
5218;DHT22;26539;51.064;6.346;2023-03-15T15:38:37;16.80;90.50
5218;DHT22;26539;51.064;6.346;2023-03-15T15:41:14;16.50;90.20
5218;DHT22;26539;51.064;6.346;2023-03-15T15:43:40;16.30;89.60
5218;DHT22;26539;51.064;6.346;2023-03-15T15:46:09;16.20;89.70
5218;DHT22;26539;51.064;6.346;2023-03-15T15:48:35;16.00;87.80
5218;DHT22;26539;51.064;6.346;2023-03-15T15:51:01;15.90;87.20
5218;DHT22;26539;51.064;6.346;2023-03-15T15:53:30;15.80;86.50
5218;DHT22;26539;51.064;6.346;2023-03-15T15:55:57;15.60;85.80
5218;DHT22;26539;51.064;6.346;2023-03-15T15:58:22;15.40;85.10
5218;DHT22;26539;51.064;6.346;2023-03-15T16:00:48;15.20;84.00
5218;DHT22;26539;51.064;6.346;2023-03-15T16:03:14;15.10;84.10
5218;DHT22;26539;51.064;6.346;2023-03-15T16:05:40;15.00;83.60
5218;DHT22;26539;51.064;6.346;2023-03-15T16:08:06;14.90;83.30
5218;DHT22;26539;51.064;6.346;2023-03-15T16:10:33;14.90;83.60
5218;DHT22;26539;51.064;6.346;2023-03-15T16:13:01;14.90;83.80
5218;DHT22;26539;51.064;6.346;2023-03-15T16:15:28;14.80;84.50
5218;DHT22;26539;51.064;6.346;2023-03-15T16:17:53;14.70;84.70
5218;DHT22;26539;51.064;6.346;2023-03-15T16:20:19;14.60;84.00
5218;DHT22;26539;51.064;6.346;2023-03-15T16:22:56;14.40;95.20
5218;DHT22;26539;51.064;6.346;2023-03-15T16:25:26;14.30;82.70
5218;DHT22;26539;51.064;6.346;2023-03-15T16:27:54;14.20;82.80
5218;DHT22;26539;51.064;6.346;2023-03-15T16:30:25;14.10;82.30
5218;DHT22;26539;51.064;6.346;2023-03-15T16:32:51;13.90;81.70
5218;DHT22;26539;51.064;6.346;2023-03-15T16:35:22;13.80;81.40
5218;DHT22;26539;51.064;6.346;2023-03-15T16:37:52;13.70;80.20
5218;DHT22;26539;51.064;6.346;2023-03-15T16:40:32;13.50;80.30
5218;DHT22;26539;51.064;6.346;2023-03-15T16:42:58;13.40;80.30
5218;DHT22;26539;51.064;6.346;2023-03-15T16:45:25;13.30;79.80
5218;DHT22;26539;51.064;6.346;2023-03-15T16:47:51;13.20;79.20
5218;DHT22;26539;51.064;6.346;2023-03-15T16:50:17;13.10;79.90
5218;DHT22;26539;51.064;6.346;2023-03-15T16:52:44;12.90;79.30
5218;DHT22;26539;51.064;6.346;2023-03-15T16:55:16;12.80;79.20
5218;DHT22;26539;51.064;6.346;2023-03-15T16:57:42;12.70;79.00
5218;DHT22;26539;51.064;6.346;2023-03-15T17:00:11;12.70;80.70
5218;DHT22;26539;51.064;6.346;2023-03-15T17:02:38;12.60;80.20
5218;DHT22;26539;51.064;6.346;2023-03-15T17:05:04;12.60;80.30
5218;DHT22;26539;51.064;6.346;2023-03-15T17:07:35;12.50;81.60
5218;DHT22;26539;51.064;6.346;2023-03-15T17:10:06;12.50;82.00
5218;DHT22;26539;51.064;6.346;2023-03-15T17:12:32;12.40;83.40
5218;DHT22;26539;51.064;6.346;2023-03-15T17:14:59;12.30;82.10
5218;DHT22;26539;51.064;6.346;2023-03-15T17:17:26;12.20;83.90
5218;DHT22;26539;51.064;6.346;2023-03-15T17:19:52;12.10;84.40
5218;DHT22;26539;51.064;6.346;2023-03-15T17:22:18;12.00;85.20
5218;DHT22;26539;51.064;6.346;2023-03-15T17:24:44;11.90;85.40
5218;DHT22;26539;51.064;6.346;2023-03-15T17:27:21;11.80;86.80
5218;DHT22;26539;51.064;6.346;2023-03-15T17:29:47;11.50;86.80
5218;DHT22;26539;51.064;6.346;2023-03-15T17:32:13;11.20;86.30
5218;DHT22;26539;51.064;6.346;2023-03-15T17:34:38;11.00;86.50
5218;DHT22;26539;51.064;6.346;2023-03-15T17:37:04;10.80;85.90
5218;DHT22;26539;51.064;6.346;2023-03-15T17:39:29;10.70;87.90
5218;DHT22;26539;51.064;6.346;2023-03-15T17:41:55;10.50;87.10
5218;DHT22;26539;51.064;6.346;2023-03-15T17:44:20;10.40;88.30
5218;DHT22;26539;51.064;6.346;2023-03-15T17:46:46;10.30;89.80
5218;DHT22;26539;51.064;6.346;2023-03-15T17:49:11;10.20;90.10
5218;DHT22;26539;51.064;6.346;2023-03-15T17:51:39;10.20;90.70
5218;DHT22;26539;51.064;6.346;2023-03-15T17:54:11;10.20;91.40
5218;DHT22;26539;51.064;6.346;2023-03-15T17:56:37;10.20;91.80
5218;DHT22;26539;51.064;6.346;2023-03-15T17:59:03;10.10;92.20
5218;DHT22;26539;51.064;6.346;2023-03-15T18:01:29;10.00;92.80
5218;DHT22;26539;51.064;6.346;2023-03-15T18:03:55;10.00;93.30
5218;DHT22;26539;51.064;6.346;2023-03-15T18:06:22;9.90;94.50
5218;DHT22;26539;51.064;6.346;2023-03-15T18:08:48;9.70;93.70
5218;DHT22;26539;51.064;6.346;2023-03-15T18:11:24;9.60;94.70
5218;DHT22;26539;51.064;6.346;2023-03-15T18:13:50;9.50;94.20
5218;DHT22;26539;51.064;6.346;2023-03-15T18:16:16;9.40;94.40
5218;DHT22;26539;51.064;6.346;2023-03-15T18:18:42;9.30;94.70
5218;DHT22;26539;51.064;6.346;2023-03-15T18:21:13;9.30;94.80
5218;DHT22;26539;51.064;6.346;2023-03-15T18:23:39;9.20;95.30
5218;DHT22;26539;51.064;6.346;2023-03-15T18:26:07;9.20;95.30
5218;DHT22;26539;51.064;6.346;2023-03-15T18:28:33;9.20;95.70
5218;DHT22;26539;51.064;6.346;2023-03-15T18:31:01;9.10;95.90
5218;DHT22;26539;51.064;6.346;2023-03-15T18:33:26;9.10;96.50
5218;DHT22;26539;51.064;6.346;2023-03-15T18:35:52;9.00;96.50
5218;DHT22;26539;51.064;6.346;2023-03-15T18:38:18;8.90;97.50
5218;DHT22;26539;51.064;6.346;2023-03-15T18:40:46;8.80;97.20
5218;DHT22;26539;51.064;6.346;2023-03-15T18:43:12;8.80;98.30
5218;DHT22;26539;51.064;6.346;2023-03-15T18:45:42;8.70;98.60
5218;DHT22;26539;51.064;6.346;2023-03-15T18:48:07;8.60;98.90
5218;DHT22;26539;51.064;6.346;2023-03-15T18:50:36;8.60;99.50
5218;DHT22;26539;51.064;6.346;2023-03-15T18:53:04;8.60;99.90
5218;DHT22;26539;51.064;6.346;2023-03-15T18:55:34;8.60;99.90
5218;DHT22;26539;51.064;6.346;2023-03-15T18:58:01;8.50;99.90
5218;DHT22;26539;51.064;6.346;2023-03-15T19:07:20;8.40;99.90
5218;DHT22;26539;51.064;6.346;2023-03-15T19:10:27;8.40;99.90
5218;DHT22;26539;51.064;6.346;2023-03-15T19:12:58;8.30;99.90
5218;DHT22;26539;51.064;6.346;2023-03-15T19:15:33;8.20;99.90
5218;DHT22;26539;51.064;6.346;2023-03-15T19:18:38;8.10;99.90
5218;DHT22;26539;51.064;6.346;2023-03-15T19:21:45;8.00;99.90
5218;DHT22;26539;51.064;6.346;2023-03-15T19:27:48;8.00;99.90
5218;DHT22;26539;51.064;6.346;2023-03-15T19:31:10;8.00;99.90
5218;DHT22;26539;51.064;6.346;2023-03-15T19:37:33;8.00;99.90
5218;DHT22;26539;51.064;6.346;2023-03-15T19:47:10;7.90;99.90
5218;DHT22;26539;51.064;6.346;2023-03-15T19:50:05;7.90;99.90
5218;DHT22;26539;51.064;6.346;2023-03-15T19:56:18;7.90;99.90
5218;DHT22;26539;51.064;6.346;2023-03-15T19:59:21;7.90;99.90
5218;DHT22;26539;51.064;6.346;2023-03-15T20:05:18;7.70;99.90
5218;DHT22;26539;51.064;6.346;2023-03-15T20:14:13;7.70;99.90
5218;DHT22;26539;51.064;6.346;2023-03-15T20:20:33;7.70;99.90
5218;DHT22;26539;51.064;6.346;2023-03-15T20:35:52;7.60;99.90
5218;DHT22;26539;51.064;6.346;2023-03-15T20:45:44;7.50;99.90